EJU363M LIMC-LICJ
Flight info
| Callsign | EJU363M |
|---|---|
| Flight time | N/A |
| Altitude | 37000 |
| Route | ROBAS DCT TINKU DCT MAREL DCT RUVIP DCT RONAB DCT GIANO |
| Aircraft | A320/M-SDE2E3FGHIJ1RWXYZ/LB1 |
Departure
| Time | 2026-02-19 15:42 |
|---|---|
| Airport | Milan Malpensa International Airport (LIMC) |
Arrival
| Time | N/A |
|---|---|
| Airport | Falcone–Borsellino Airport (LICJ) |
| Time | Latitude | Longitude | Altitude | Speed | Heading |
|---|---|---|---|---|---|
| 2026-02-19 15:08 | 45.64525 | 8.72280 | 736 ft | 0 kts | 349° |
| 2026-02-19 15:30 | 45.64511 | 8.72284 | 736 ft | 3 kts | 349° |
| 2026-02-19 15:30 | 45.64491 | 8.72289 | 735 ft | 3 kts | 349° |
| 2026-02-19 15:30 | 45.64472 | 8.72295 | 736 ft | 3 kts | 351° |
| 2026-02-19 15:30 | 45.64452 | 8.72297 | 733 ft | 3 kts | 13° |
| 2026-02-19 15:31 | 45.64435 | 8.72286 | 735 ft | 3 kts | 52° |
| 2026-02-19 15:31 | 45.64428 | 8.72261 | 735 ft | 1 kts | 94° |
| 2026-02-19 15:31 | 45.64429 | 8.72286 | 735 ft | 3 kts | 83° |
| 2026-02-19 15:32 | 45.64433 | 8.72314 | 735 ft | 3 kts | 78° |
| 2026-02-19 15:32 | 45.64436 | 8.72337 | 736 ft | 0 kts | 79° |
| 2026-02-19 15:34 | 45.64437 | 8.72348 | 736 ft | 4 kts | 79° |
| 2026-02-19 15:35 | 45.64437 | 8.72396 | 736 ft | 7 kts | 112° |
| 2026-02-19 15:35 | 45.64376 | 8.72437 | 736 ft | 13 kts | 167° |
| 2026-02-19 15:35 | 45.64287 | 8.72463 | 736 ft | 13 kts | 168° |
| 2026-02-19 15:35 | 45.64202 | 8.72487 | 736 ft | 12 kts | 169° |
| 2026-02-19 15:36 | 45.64126 | 8.72509 | 736 ft | 11 kts | 169° |
| 2026-02-19 15:36 | 45.63970 | 8.72561 | 736 ft | 10 kts | 167° |
| 2026-02-19 15:36 | 45.63893 | 8.72584 | 736 ft | 15 kts | 168° |
| 2026-02-19 15:37 | 45.63757 | 8.72621 | 736 ft | 26 kts | 169° |
| 2026-02-19 15:37 | 45.63570 | 8.72666 | 736 ft | 28 kts | 171° |
| 2026-02-19 15:37 | 45.63377 | 8.72722 | 736 ft | 29 kts | 165° |
| 2026-02-19 15:37 | 45.63188 | 8.72777 | 736 ft | 25 kts | 169° |
| 2026-02-19 15:38 | 45.63007 | 8.72825 | 736 ft | 27 kts | 168° |
| 2026-02-19 15:38 | 45.62826 | 8.72875 | 737 ft | 28 kts | 170° |
| 2026-02-19 15:38 | 45.62661 | 8.72920 | 735 ft | 24 kts | 168° |
| 2026-02-19 15:38 | 45.62548 | 8.72952 | 737 ft | 25 kts | 169° |
| 2026-02-19 15:39 | 45.62378 | 8.72998 | 735 ft | 23 kts | 169° |
| 2026-02-19 15:39 | 45.62216 | 8.73042 | 737 ft | 22 kts | 169° |
| 2026-02-19 15:39 | 45.62058 | 8.73087 | 737 ft | 24 kts | 169° |
| 2026-02-19 15:39 | 45.61901 | 8.73130 | 735 ft | 19 kts | 169° |
| 2026-02-19 15:40 | 45.61771 | 8.73173 | 735 ft | 19 kts | 156° |
| 2026-02-19 15:40 | 45.61618 | 8.73462 | 737 ft | 18 kts | 124° |
| 2026-02-19 15:41 | 45.61603 | 8.73733 | 737 ft | 8 kts | 51° |
| 2026-02-19 15:41 | 45.61654 | 8.73729 | 737 ft | 9 kts | 348° |
| 2026-02-19 15:41 | 45.61844 | 8.73678 | 737 ft | 61 kts | 349° |
| 2026-02-19 15:41 | 45.62581 | 8.73465 | 740 ft | 130 kts | 349° |
| 2026-02-19 15:42 | 45.63610 | 8.73182 | 799 ft | 171 kts | 347° |
| 2026-02-19 15:42 | 45.64783 | 8.72976 | 1441 ft | 175 kts | 2° |
| 2026-02-19 15:42 | 45.65925 | 8.73636 | 2124 ft | 187 kts | 41° |
| 2026-02-19 15:42 | 45.66635 | 8.75251 | 2693 ft | 199 kts | 64° |
| 2026-02-19 15:43 | 45.67333 | 8.76942 | 3427 ft | 196 kts | 47° |
| 2026-02-19 15:43 | 45.68299 | 8.78292 | 4089 ft | 196 kts | 39° |
| 2026-02-19 15:43 | 45.69062 | 8.79220 | 4341 ft | 209 kts | 38° |
| 2026-02-19 15:43 | 45.70574 | 8.81012 | 5212 ft | 217 kts | 37° |
| 2026-02-19 15:44 | 45.71763 | 8.82417 | 5879 ft | 221 kts | 38° |
| 2026-02-19 15:44 | 45.72535 | 8.86758 | 7187 ft | 254 kts | 113° |
| 2026-02-19 15:44 | 45.71491 | 8.89011 | 8056 ft | 260 kts | 126° |
| 2026-02-19 15:45 | 45.70796 | 8.90314 | 8591 ft | 263 kts | 126° |
| 2026-02-19 15:45 | 45.69272 | 8.93149 | 9712 ft | 269 kts | 126° |
| 2026-02-19 15:45 | 45.68133 | 8.95300 | 10460 ft | 274 kts | 125° |
| 2026-02-19 15:45 | 45.66990 | 8.97496 | 11208 ft | 279 kts | 125° |
| 2026-02-19 15:46 | 45.65804 | 8.99801 | 11982 ft | 284 kts | 124° |
| 2026-02-19 15:46 | 45.64622 | 9.02093 | 12736 ft | 290 kts | 127° |
| 2026-02-19 15:46 | 45.63209 | 9.04390 | 13120 ft | 312 kts | 130° |
| 2026-02-19 15:46 | 45.62207 | 9.05975 | 13293 ft | 328 kts | 131° |
| 2026-02-19 15:47 | 45.60555 | 9.08423 | 13501 ft | 353 kts | 140° |
| 2026-02-19 15:47 | 45.58414 | 9.10380 | 13853 ft | 368 kts | 150° |
| 2026-02-19 15:47 | 45.56178 | 9.12216 | 14493 ft | 373 kts | 150° |
| 2026-02-19 15:47 | 45.53714 | 9.14225 | 15289 ft | 375 kts | 150° |
| 2026-02-19 15:48 | 45.51556 | 9.15981 | 16004 ft | 377 kts | 150° |
| 2026-02-19 15:48 | 45.46971 | 9.19699 | 17500 ft | 381 kts | 150° |
| 2026-02-19 15:48 | 45.44595 | 9.21629 | 18200 ft | 383 kts | 150° |
| 2026-02-19 15:49 | 45.42273 | 9.23520 | 18806 ft | 386 kts | 150° |
| 2026-02-19 15:49 | 45.39934 | 9.25424 | 19406 ft | 389 kts | 150° |
| 2026-02-19 15:49 | 45.37574 | 9.27345 | 20003 ft | 392 kts | 150° |
| 2026-02-19 15:49 | 45.35193 | 9.29280 | 20590 ft | 395 kts | 150° |
| 2026-02-19 15:50 | 45.32803 | 9.31219 | 21161 ft | 398 kts | 150° |
| 2026-02-19 15:50 | 45.30355 | 9.33202 | 21734 ft | 401 kts | 150° |
| 2026-02-19 15:50 | 45.27917 | 9.35173 | 22287 ft | 404 kts | 150° |
| 2026-02-19 15:50 | 45.25469 | 9.37148 | 22828 ft | 407 kts | 151° |
| 2026-02-19 15:51 | 45.22996 | 9.39142 | 23336 ft | 410 kts | 151° |
| 2026-02-19 15:51 | 45.20504 | 9.41148 | 23797 ft | 413 kts | 151° |
| 2026-02-19 15:51 | 45.18003 | 9.43161 | 24269 ft | 415 kts | 151° |
| 2026-02-19 15:51 | 45.15456 | 9.45213 | 24727 ft | 417 kts | 151° |
| 2026-02-19 15:52 | 45.12928 | 9.47248 | 25182 ft | 418 kts | 151° |
| 2026-02-19 15:52 | 45.07847 | 9.51334 | 26079 ft | 422 kts | 152° |
| 2026-02-19 15:52 | 45.05255 | 9.53411 | 26523 ft | 424 kts | 152° |
| 2026-02-19 15:53 | 45.02669 | 9.55476 | 26948 ft | 426 kts | 152° |
| 2026-02-19 15:53 | 45.00079 | 9.57539 | 27384 ft | 428 kts | 152° |
| 2026-02-19 15:53 | 44.97479 | 9.59611 | 27814 ft | 430 kts | 152° |
| 2026-02-19 15:53 | 44.94865 | 9.61695 | 28232 ft | 432 kts | 152° |
| 2026-02-19 15:54 | 44.92242 | 9.63789 | 28652 ft | 434 kts | 152° |
| 2026-02-19 15:54 | 44.89610 | 9.65888 | 29073 ft | 436 kts | 152° |
| 2026-02-19 15:54 | 44.84307 | 9.70114 | 29835 ft | 440 kts | 152° |
| 2026-02-19 15:55 | 44.81626 | 9.72242 | 30127 ft | 442 kts | 153° |
| 2026-02-19 15:55 | 44.78936 | 9.74369 | 30397 ft | 445 kts | 153° |
| 2026-02-19 15:55 | 44.76192 | 9.76537 | 30658 ft | 448 kts | 153° |
| 2026-02-19 15:55 | 44.73518 | 9.78648 | 30907 ft | 450 kts | 153° |
| 2026-02-19 15:56 | 44.70722 | 9.80857 | 31160 ft | 453 kts | 153° |
| 2026-02-19 15:56 | 44.65230 | 9.85201 | 31876 ft | 453 kts | 153° |
| 2026-02-19 15:56 | 44.62484 | 9.87368 | 32240 ft | 453 kts | 153° |
| 2026-02-19 15:57 | 44.59727 | 9.89538 | 32595 ft | 453 kts | 154° |
| 2026-02-19 15:57 | 44.56990 | 9.91690 | 32950 ft | 454 kts | 154° |
| 2026-02-19 15:57 | 44.51475 | 9.96013 | 33661 ft | 454 kts | 154° |
| 2026-02-19 15:58 | 44.48714 | 9.98178 | 33941 ft | 454 kts | 154° |
| 2026-02-19 15:58 | 44.45959 | 10.00342 | 34218 ft | 455 kts | 154° |
| 2026-02-19 15:58 | 44.43194 | 10.02512 | 34488 ft | 455 kts | 154° |
| 2026-02-19 15:58 | 44.40426 | 10.04679 | 34746 ft | 456 kts | 154° |
| 2026-02-19 15:59 | 44.37657 | 10.06835 | 35007 ft | 456 kts | 154° |
| 2026-02-19 15:59 | 44.34883 | 10.08991 | 35250 ft | 457 kts | 154° |
| 2026-02-19 15:59 | 44.32066 | 10.11178 | 35510 ft | 457 kts | 154° |
| 2026-02-19 15:59 | 44.29332 | 10.13302 | 35766 ft | 457 kts | 155° |
| 2026-02-19 16:00 | 44.26508 | 10.15494 | 36009 ft | 457 kts | 155° |
| 2026-02-19 16:00 | 44.20937 | 10.19808 | 36468 ft | 458 kts | 155° |
| 2026-02-19 16:01 | 44.15374 | 10.24113 | 36564 ft | 456 kts | 155° |
| 2026-02-19 16:01 | 44.09849 | 10.28377 | 36574 ft | 454 kts | 155° |
| 2026-02-19 16:02 | 44.04276 | 10.32669 | 36578 ft | 454 kts | 155° |
| 2026-02-19 16:02 | 43.95985 | 10.39037 | 36642 ft | 454 kts | 155° |
| 2026-02-19 16:03 | 43.90423 | 10.43294 | 36654 ft | 454 kts | 155° |
| 2026-02-19 16:03 | 43.85830 | 10.46812 | 36654 ft | 454 kts | 155° |
| 2026-02-19 16:04 | 43.77430 | 10.53061 | 36659 ft | 449 kts | 162° |
| 2026-02-19 16:05 | 43.71450 | 10.55206 | 36655 ft | 439 kts | 176° |
| 2026-02-19 16:05 | 43.65419 | 10.56588 | 36654 ft | 439 kts | 175° |
| 2026-02-19 16:06 | 43.59399 | 10.57980 | 36646 ft | 438 kts | 175° |
| 2026-02-19 16:06 | 43.53425 | 10.59357 | 36650 ft | 438 kts | 175° |
| 2026-02-19 16:07 | 43.47365 | 10.60749 | 36647 ft | 438 kts | 176° |
| 2026-02-19 16:07 | 43.41351 | 10.62124 | 36651 ft | 438 kts | 176° |
| 2026-02-19 16:08 | 43.35340 | 10.63499 | 36653 ft | 438 kts | 176° |
| 2026-02-19 16:08 | 43.26351 | 10.65818 | 36648 ft | 441 kts | 170° |
| 2026-02-19 16:09 | 43.20427 | 10.68046 | 36651 ft | 442 kts | 170° |
| 2026-02-19 16:09 | 43.14502 | 10.70259 | 36647 ft | 441 kts | 170° |
| 2026-02-19 16:10 | 43.08492 | 10.72486 | 36663 ft | 441 kts | 170° |
| 2026-02-19 16:10 | 43.02613 | 10.74673 | 36659 ft | 442 kts | 170° |
| 2026-02-19 16:11 | 42.96634 | 10.76890 | 36661 ft | 441 kts | 171° |
| 2026-02-19 16:11 | 42.90705 | 10.79079 | 36657 ft | 441 kts | 171° |
| 2026-02-19 16:12 | 42.81816 | 10.82360 | 36663 ft | 441 kts | 171° |
| 2026-02-19 16:13 | 42.75894 | 10.84547 | 36651 ft | 441 kts | 171° |
| 2026-02-19 16:13 | 42.69969 | 10.86718 | 36654 ft | 441 kts | 171° |
| 2026-02-19 16:14 | 42.64037 | 10.88889 | 36649 ft | 441 kts | 171° |
| 2026-02-19 16:14 | 42.58108 | 10.91062 | 36657 ft | 441 kts | 171° |
| 2026-02-19 16:15 | 42.52176 | 10.93227 | 36655 ft | 441 kts | 171° |
| 2026-02-19 16:15 | 42.46243 | 10.95394 | 36671 ft | 442 kts | 171° |
| 2026-02-19 16:16 | 42.40270 | 10.97565 | 36665 ft | 442 kts | 171° |
| 2026-02-19 16:16 | 42.31366 | 11.00793 | 36660 ft | 442 kts | 171° |
| 2026-02-19 16:17 | 42.25424 | 11.02943 | 36665 ft | 442 kts | 171° |
| 2026-02-19 16:17 | 42.19446 | 11.05103 | 36664 ft | 442 kts | 171° |
| 2026-02-19 16:18 | 42.13506 | 11.07250 | 36669 ft | 442 kts | 171° |
| 2026-02-19 16:18 | 42.07564 | 11.09394 | 36659 ft | 442 kts | 172° |
| 2026-02-19 16:19 | 42.01622 | 11.11528 | 36665 ft | 442 kts | 172° |
| 2026-02-19 16:19 | 41.95685 | 11.13654 | 36664 ft | 442 kts | 172° |
| 2026-02-19 16:20 | 41.86771 | 11.16833 | 36668 ft | 442 kts | 172° |
| 2026-02-19 16:21 | 41.80832 | 11.18948 | 36662 ft | 442 kts | 172° |
| 2026-02-19 16:21 | 41.74855 | 11.21081 | 36668 ft | 442 kts | 172° |
| 2026-02-19 16:22 | 41.68915 | 11.23196 | 36670 ft | 442 kts | 172° |
| 2026-02-19 16:22 | 41.62970 | 11.25302 | 36687 ft | 442 kts | 172° |
| 2026-02-19 16:23 | 41.57028 | 11.27405 | 36688 ft | 442 kts | 172° |
| 2026-02-19 16:23 | 41.51029 | 11.29524 | 36693 ft | 443 kts | 172° |
| 2026-02-19 16:24 | 41.45074 | 11.31625 | 36695 ft | 442 kts | 172° |
| 2026-02-19 16:24 | 41.36149 | 11.34768 | 36699 ft | 442 kts | 172° |
| 2026-02-19 16:25 | 41.30187 | 11.36861 | 36708 ft | 442 kts | 173° |
| 2026-02-19 16:25 | 41.24236 | 11.38944 | 36711 ft | 442 kts | 173° |
| 2026-02-19 16:26 | 41.18238 | 11.41034 | 36720 ft | 442 kts | 173° |
| 2026-02-19 16:26 | 41.12287 | 11.43113 | 36725 ft | 442 kts | 173° |
| 2026-02-19 16:27 | 41.06339 | 11.45185 | 36733 ft | 442 kts | 173° |
| 2026-02-19 16:27 | 41.00384 | 11.47263 | 36731 ft | 442 kts | 173° |
| 2026-02-19 16:28 | 40.91457 | 11.50358 | 36743 ft | 442 kts | 173° |
| 2026-02-19 16:29 | 40.85500 | 11.52414 | 36743 ft | 442 kts | 173° |
| 2026-02-19 16:29 | 40.79540 | 11.54472 | 36758 ft | 443 kts | 173° |
| 2026-02-19 16:30 | 40.74578 | 11.56185 | 36746 ft | 443 kts | 173° |
| 2026-02-19 16:30 | 40.68568 | 11.58256 | 36756 ft | 444 kts | 173° |
| 2026-02-19 16:31 | 40.62590 | 11.60306 | 36755 ft | 444 kts | 174° |
| 2026-02-19 16:31 | 40.56615 | 11.62357 | 36760 ft | 444 kts | 174° |
| 2026-02-19 16:32 | 40.50585 | 11.64420 | 36762 ft | 444 kts | 174° |
| 2026-02-19 16:32 | 40.41610 | 11.67496 | 36762 ft | 445 kts | 174° |
| 2026-02-19 16:33 | 40.35622 | 11.69536 | 36780 ft | 445 kts | 174° |
| 2026-02-19 16:33 | 40.29586 | 11.71585 | 36783 ft | 445 kts | 174° |
| 2026-02-19 16:34 | 40.23588 | 11.73619 | 36788 ft | 445 kts | 174° |
| 2026-02-19 16:34 | 40.17555 | 11.75671 | 36777 ft | 445 kts | 174° |
| 2026-02-19 16:35 | 40.11556 | 11.77701 | 36788 ft | 445 kts | 174° |
| 2026-02-19 16:35 | 40.05572 | 11.79801 | 36783 ft | 450 kts | 169° |
| 2026-02-19 16:36 | 39.96756 | 11.84227 | 36789 ft | 453 kts | 168° |
| 2026-02-19 16:37 | 39.87915 | 11.88636 | 36791 ft | 454 kts | 168° |
| 2026-02-19 16:37 | 39.82044 | 11.91722 | 36787 ft | 457 kts | 165° |
| 2026-02-19 16:38 | 39.76187 | 11.95099 | 36284 ft | 457 kts | 165° |
| 2026-02-19 16:38 | 39.73282 | 11.96795 | 35655 ft | 457 kts | 165° |
| 2026-02-19 16:38 | 39.70395 | 11.98465 | 35187 ft | 452 kts | 165° |
| 2026-02-19 16:39 | 39.67531 | 12.00101 | 34750 ft | 447 kts | 166° |
| 2026-02-19 16:39 | 39.64693 | 12.01701 | 34321 ft | 442 kts | 166° |
| 2026-02-19 16:39 | 39.61880 | 12.03272 | 33903 ft | 438 kts | 167° |
| 2026-02-19 16:39 | 39.59100 | 12.04820 | 33411 ft | 434 kts | 167° |
| 2026-02-19 16:40 | 39.56341 | 12.06352 | 32908 ft | 430 kts | 167° |
| 2026-02-19 16:40 | 39.50897 | 12.09383 | 31962 ft | 422 kts | 166° |
| 2026-02-19 16:40 | 39.48215 | 12.10880 | 31483 ft | 418 kts | 166° |
| 2026-02-19 16:41 | 39.45516 | 12.12387 | 31009 ft | 415 kts | 166° |
| 2026-02-19 16:41 | 39.42874 | 12.13860 | 30563 ft | 411 kts | 166° |
| 2026-02-19 16:41 | 39.40262 | 12.15316 | 30135 ft | 408 kts | 166° |
| 2026-02-19 16:41 | 39.37672 | 12.16761 | 29519 ft | 403 kts | 166° |
| 2026-02-19 16:42 | 39.35072 | 12.18211 | 28816 ft | 399 kts | 166° |
| 2026-02-19 16:42 | 39.32543 | 12.19620 | 28149 ft | 395 kts | 166° |
| 2026-02-19 16:42 | 39.30027 | 12.21018 | 27495 ft | 391 kts | 165° |
| 2026-02-19 16:42 | 39.27536 | 12.22398 | 26831 ft | 387 kts | 165° |
| 2026-02-19 16:43 | 39.25073 | 12.23761 | 26201 ft | 384 kts | 165° |
| 2026-02-19 16:43 | 39.22624 | 12.25112 | 25596 ft | 381 kts | 165° |
| 2026-02-19 16:43 | 39.20160 | 12.26467 | 24986 ft | 377 kts | 165° |
| 2026-02-19 16:43 | 39.17757 | 12.27787 | 24384 ft | 375 kts | 164° |
| 2026-02-19 16:44 | 39.15349 | 12.29113 | 23802 ft | 372 kts | 164° |
| 2026-02-19 16:44 | 39.10632 | 12.31729 | 22809 ft | 368 kts | 164° |
| 2026-02-19 16:44 | 39.08255 | 12.33043 | 22313 ft | 366 kts | 163° |
| 2026-02-19 16:45 | 39.05923 | 12.34324 | 21889 ft | 363 kts | 163° |
| 2026-02-19 16:45 | 39.03603 | 12.35597 | 21457 ft | 361 kts | 163° |
| 2026-02-19 16:45 | 39.01303 | 12.36862 | 21039 ft | 359 kts | 163° |
| 2026-02-19 16:45 | 38.99013 | 12.38121 | 20618 ft | 357 kts | 163° |
| 2026-02-19 16:46 | 38.96736 | 12.39369 | 20207 ft | 355 kts | 163° |
| 2026-02-19 16:46 | 38.94477 | 12.40613 | 19816 ft | 353 kts | 161° |
| 2026-02-19 16:46 | 38.92404 | 12.42332 | 19443 ft | 361 kts | 141° |
| 2026-02-19 16:46 | 38.90809 | 12.44844 | 19055 ft | 364 kts | 127° |
| 2026-02-19 16:47 | 38.89391 | 12.47533 | 18674 ft | 363 kts | 127° |
| 2026-02-19 16:47 | 38.87968 | 12.50258 | 18323 ft | 361 kts | 127° |
| 2026-02-19 16:47 | 38.86573 | 12.52927 | 17961 ft | 359 kts | 127° |
| 2026-02-19 16:47 | 38.85169 | 12.55613 | 17551 ft | 357 kts | 127° |
| 2026-02-19 16:48 | 38.83790 | 12.58247 | 17169 ft | 355 kts | 127° |
| 2026-02-19 16:48 | 38.81051 | 12.63483 | 16437 ft | 351 kts | 127° |
| 2026-02-19 16:48 | 38.79692 | 12.66069 | 16078 ft | 350 kts | 127° |
| 2026-02-19 16:49 | 38.78337 | 12.68654 | 15738 ft | 348 kts | 127° |
| 2026-02-19 16:49 | 38.76989 | 12.71230 | 15410 ft | 347 kts | 127° |
| 2026-02-19 16:49 | 38.75649 | 12.73787 | 15062 ft | 344 kts | 127° |
| 2026-02-19 16:49 | 38.74314 | 12.76325 | 14609 ft | 343 kts | 127° |
| 2026-02-19 16:50 | 38.72997 | 12.78832 | 14176 ft | 341 kts | 127° |
| 2026-02-19 16:50 | 38.71669 | 12.81353 | 13742 ft | 339 kts | 127° |
| 2026-02-19 16:50 | 38.70356 | 12.83842 | 13279 ft | 336 kts | 127° |
| 2026-02-19 16:50 | 38.69052 | 12.86316 | 12817 ft | 334 kts | 126° |
| 2026-02-19 16:51 | 38.67756 | 12.88774 | 12358 ft | 331 kts | 126° |
| 2026-02-19 16:51 | 38.66890 | 12.90421 | 12055 ft | 330 kts | 126° |
| 2026-02-19 16:51 | 38.65611 | 12.92847 | 11609 ft | 327 kts | 126° |
| 2026-02-19 16:51 | 38.64342 | 12.95247 | 11159 ft | 325 kts | 126° |
| 2026-02-19 16:52 | 38.63083 | 12.97621 | 10722 ft | 322 kts | 126° |
| 2026-02-19 16:52 | 38.60582 | 13.02332 | 9973 ft | 318 kts | 125° |
| 2026-02-19 16:52 | 38.59325 | 13.04704 | 9616 ft | 316 kts | 125° |
| 2026-02-19 16:53 | 38.56859 | 13.09345 | 8911 ft | 310 kts | 126° |
| 2026-02-19 16:53 | 38.55649 | 13.11616 | 8547 ft | 308 kts | 126° |
| 2026-02-19 16:53 | 38.54453 | 13.13871 | 8176 ft | 305 kts | 126° |
| 2026-02-19 16:54 | 38.53268 | 13.16104 | 7815 ft | 303 kts | 126° |
| 2026-02-19 16:54 | 38.52089 | 13.18319 | 7440 ft | 300 kts | 126° |
| 2026-02-19 16:54 | 38.50920 | 13.20512 | 7087 ft | 297 kts | 126° |
| 2026-02-19 16:54 | 38.49762 | 13.22682 | 6719 ft | 295 kts | 126° |
| 2026-02-19 16:55 | 38.48613 | 13.24833 | 6349 ft | 293 kts | 126° |
| 2026-02-19 16:55 | 38.47453 | 13.27006 | 5928 ft | 291 kts | 126° |
| 2026-02-19 16:55 | 38.46319 | 13.29131 | 5522 ft | 289 kts | 126° |
| 2026-02-19 16:55 | 38.45190 | 13.31244 | 5106 ft | 287 kts | 126° |
| 2026-02-19 16:56 | 38.44079 | 13.33325 | 4882 ft | 278 kts | 126° |
| 2026-02-19 16:56 | 38.41995 | 13.37221 | 4625 ft | 255 kts | 126° |
| 2026-02-19 16:56 | 38.41018 | 13.39045 | 4492 ft | 244 kts | 126° |
| 2026-02-19 16:57 | 38.40047 | 13.40773 | 4302 ft | 236 kts | 135° |
| 2026-02-19 16:57 | 38.38809 | 13.42083 | 4026 ft | 228 kts | 155° |
| 2026-02-19 16:57 | 38.37368 | 13.42838 | 3755 ft | 222 kts | 167° |
| 2026-02-19 16:57 | 38.35912 | 13.43429 | 3628 ft | 221 kts | 167° |
| 2026-02-19 16:58 | 38.34425 | 13.44047 | 3493 ft | 219 kts | 166° |
| 2026-02-19 16:58 | 38.32996 | 13.44646 | 3382 ft | 213 kts | 166° |
| 2026-02-19 16:58 | 38.31602 | 13.45108 | 3284 ft | 200 kts | 182° |
| 2026-02-19 16:58 | 38.31275 | 13.45111 | 3271 ft | 195 kts | 189° |